createdAt,value
2023-02-14T00:01:18.556Z,3.87
2023-02-14T00:03:45.351Z,3.85
2023-02-14T00:06:13.691Z,3.84
2023-02-14T00:08:44.421Z,3.82
2023-02-14T00:11:12.024Z,3.81
2023-02-14T00:13:38.776Z,3.77
2023-02-14T00:16:05.804Z,3.74
2023-02-14T00:18:51.133Z,3.73
2023-02-14T00:21:17.902Z,3.70
2023-02-14T00:23:44.525Z,3.68
2023-02-14T00:26:15.106Z,3.65
2023-02-14T00:28:43.186Z,3.64
2023-02-14T00:31:10.195Z,3.62
2023-02-14T00:33:37.284Z,3.62
2023-02-14T00:36:05.480Z,3.59
2023-02-14T00:38:32.246Z,3.58
2023-02-14T00:40:59.343Z,3.57
2023-02-14T00:43:26.352Z,3.56
2023-02-14T00:45:53.099Z,3.52
2023-02-14T00:48:19.926Z,3.51
2023-02-14T00:50:47.272Z,3.49
2023-02-14T00:53:14.423Z,3.48
2023-02-14T00:55:41.216Z,3.46
2023-02-14T00:58:08.325Z,3.44
2023-02-14T01:00:35.135Z,3.43
2023-02-14T01:03:01.904Z,3.40
2023-02-14T01:05:29.224Z,3.39
2023-02-14T01:07:55.931Z,3.37
2023-02-14T01:10:22.737Z,3.35
2023-02-14T01:12:51.183Z,3.33
2023-02-14T01:15:17.985Z,3.31
2023-02-14T01:17:44.752Z,3.29
2023-02-14T01:20:11.784Z,3.29
2023-02-14T01:22:38.994Z,3.28
2023-02-14T01:25:06.749Z,3.25
2023-02-14T01:27:33.504Z,3.24
2023-02-14T01:30:00.398Z,3.22
2023-02-14T01:32:31.388Z,3.21
2023-02-14T01:35:04.221Z,3.19
2023-02-14T01:37:33.201Z,3.17
2023-02-14T01:40:00.198Z,3.15
2023-02-14T01:42:27.039Z,3.12
2023-02-14T01:44:58.837Z,3.10
2023-02-14T01:47:27.580Z,3.09
2023-02-14T01:49:58.100Z,3.07
2023-02-14T01:52:34.041Z,3.06
2023-02-14T01:55:03.892Z,3.05
2023-02-14T01:57:54.125Z,3.03
2023-02-14T02:00:40.853Z,3.00
2023-02-14T02:03:08.402Z,2.98
2023-02-14T02:05:42.427Z,2.95
2023-02-14T02:08:09.293Z,2.93
2023-02-14T02:10:35.917Z,2.92
2023-02-14T02:13:07.316Z,2.90
2023-02-14T02:15:52.543Z,2.90
2023-02-14T02:18:44.209Z,2.87
2023-02-14T02:21:45.188Z,2.86
2023-02-14T02:24:32.252Z,2.84
2023-02-14T02:27:11.165Z,2.82
2023-02-14T02:30:07.517Z,2.81
2023-02-14T02:32:46.494Z,2.79
2023-02-14T02:35:35.973Z,2.76
2023-02-14T02:38:35.060Z,2.75
2023-02-14T02:41:07.786Z,2.73
2023-02-14T02:43:55.060Z,2.71
2023-02-14T02:46:48.043Z,2.69
2023-02-14T02:49:57.888Z,2.68
2023-02-14T02:52:55.567Z,2.67
2023-02-14T02:56:02.723Z,2.65
2023-02-14T02:58:46.650Z,2.62
2023-02-14T03:01:16.926Z,2.59
2023-02-14T03:04:05.221Z,2.58
2023-02-14T03:06:32.816Z,2.57
2023-02-14T03:09:36.175Z,2.55
2023-02-14T03:12:15.230Z,2.53
2023-02-14T03:14:54.875Z,2.51
2023-02-14T03:17:28.177Z,2.51
2023-02-14T03:20:26.080Z,2.50
2023-02-14T03:23:22.513Z,2.47
2023-02-14T03:26:10.603Z,2.46
2023-02-14T03:28:59.718Z,2.44
2023-02-14T03:31:38.243Z,2.44
2023-02-14T03:34:12.604Z,2.43
2023-02-14T03:37:00.897Z,2.42
2023-02-14T03:39:36.043Z,2.43
2023-02-14T03:42:07.250Z,2.42
2023-02-14T03:44:35.062Z,2.43
2023-02-14T03:47:06.123Z,2.43
2023-02-14T03:49:41.341Z,2.43
2023-02-14T03:52:09.964Z,2.43
2023-02-14T03:54:36.807Z,2.43
2023-02-14T03:57:23.992Z,2.43
2023-02-14T03:59:50.998Z,2.43
2023-02-14T04:02:22.177Z,2.42
2023-02-14T04:04:49.984Z,2.43
2023-02-14T04:07:19.344Z,2.41
2023-02-14T04:09:46.349Z,2.41
2023-02-14T04:12:14.028Z,2.42
2023-02-14T04:14:41.056Z,2.40
2023-02-14T04:17:27.807Z,2.40
2023-02-14T04:19:54.792Z,2.38
2023-02-14T04:22:21.544Z,2.36
2023-02-14T04:24:48.359Z,2.36
2023-02-14T04:27:15.049Z,2.35
2023-02-14T04:29:43.454Z,2.35
2023-02-14T04:32:18.987Z,2.33
2023-02-14T04:34:45.959Z,2.34
2023-02-14T04:37:13.882Z,2.32
2023-02-14T04:39:40.691Z,2.32
2023-02-14T04:42:07.875Z,2.32
2023-02-14T04:44:34.728Z,2.31
2023-02-14T04:47:01.836Z,2.29
2023-02-14T04:49:28.623Z,2.28
2023-02-14T04:51:55.311Z,2.28
2023-02-14T04:54:22.400Z,2.28
2023-02-14T04:56:49.345Z,2.28
2023-02-14T04:59:16.155Z,2.26
2023-02-14T05:01:42.908Z,2.26
2023-02-14T05:04:10.290Z,2.24
2023-02-14T05:06:36.980Z,2.25
2023-02-14T05:09:03.980Z,2.24
2023-02-14T05:11:31.456Z,2.24
2023-02-14T05:13:58.212Z,2.23
2023-02-14T05:16:25.322Z,2.22
2023-02-14T05:18:52.189Z,2.21
2023-02-14T05:21:18.888Z,2.19
2023-02-14T05:23:45.814Z,2.18
2023-02-14T05:26:12.461Z,2.18
2023-02-14T05:28:41.125Z,2.17
2023-02-14T05:31:08.782Z,2.17
2023-02-14T05:33:36.046Z,2.17
2023-02-14T05:36:02.884Z,2.16
2023-02-14T05:38:30.654Z,2.15
2023-02-14T05:40:57.495Z,2.15
2023-02-14T05:43:24.373Z,2.15
2023-02-14T05:45:51.227Z,2.15
2023-02-14T05:48:18.057Z,2.15
2023-02-14T05:50:45.555Z,2.15
2023-02-14T05:53:13.272Z,2.14
2023-02-14T05:55:40.053Z,2.14
2023-02-14T05:58:07.238Z,2.14
2023-02-14T06:00:34.599Z,2.13
2023-02-14T06:03:01.439Z,2.12
2023-02-14T06:05:28.201Z,2.13
2023-02-14T06:07:55.205Z,2.13
2023-02-14T06:10:23.943Z,2.13
2023-02-14T06:12:51.838Z,2.12
2023-02-14T06:15:18.853Z,2.13
2023-02-14T06:17:47.946Z,2.12
2023-02-14T06:20:14.617Z,2.10
2023-02-14T06:22:41.925Z,2.10
2023-02-14T06:25:08.652Z,2.09
2023-02-14T06:27:35.423Z,2.09
2023-02-14T06:30:02.318Z,2.07
2023-02-14T06:32:29.240Z,2.07
2023-02-14T06:34:55.900Z,2.06
2023-02-14T06:37:22.875Z,2.04
2023-02-14T06:39:49.591Z,2.04
2023-02-14T06:42:16.518Z,2.03
2023-02-14T06:44:43.205Z,2.02
2023-02-14T06:47:10.053Z,2.02
2023-02-14T06:49:36.789Z,2.00
2023-02-14T06:52:04.781Z,2.00
2023-02-14T06:54:36.712Z,2.00
2023-02-14T06:57:04.682Z,1.98
2023-02-14T06:59:31.528Z,1.98
2023-02-14T07:01:58.190Z,1.61
2023-02-14T07:04:24.700Z,0.95
2023-02-14T07:06:51.369Z,0.49
2023-02-14T07:09:18.404Z,0.19
2023-02-14T07:11:45.349Z,-0.14
2023-02-14T07:14:12.322Z,-0.29
2023-02-14T07:16:38.945Z,-0.33
2023-02-14T07:19:05.659Z,-0.34
2023-02-14T07:21:32.470Z,-0.40
2023-02-14T07:23:59.125Z,-0.53
2023-02-14T07:26:25.862Z,-0.62
2023-02-14T07:28:52.633Z,-0.64
2023-02-14T07:31:23.733Z,-0.62
2023-02-14T07:33:51.508Z,-0.57
2023-02-14T07:36:18.773Z,-0.62
2023-02-14T07:38:46.144Z,-0.74
2023-02-14T07:41:13.399Z,-0.72
2023-02-14T07:43:43.105Z,-0.57
2023-02-14T07:46:10.106Z,-0.58
2023-02-14T07:48:36.983Z,-0.56
2023-02-14T07:51:04.037Z,-0.49
2023-02-14T07:53:31.188Z,-0.52
2023-02-14T07:55:58.267Z,-0.35
2023-02-14T07:58:25.054Z,-0.16
2023-02-14T08:00:52.452Z,-0.03
2023-02-14T08:03:19.255Z,0.10
2023-02-14T08:05:57.208Z,0.22
2023-02-14T08:08:25.764Z,0.32
2023-02-14T08:10:52.404Z,0.38
2023-02-14T08:13:19.170Z,0.46
2023-02-14T08:16:04.345Z,0.52
2023-02-14T08:18:41.975Z,0.62
2023-02-14T08:21:11.463Z,0.69
2023-02-14T08:23:38.159Z,0.75
2023-02-14T08:26:05.132Z,0.80
2023-02-14T08:28:33.333Z,0.85
2023-02-14T08:31:00.569Z,0.86
2023-02-14T08:33:28.007Z,0.88
2023-02-14T08:35:54.899Z,0.89
2023-02-14T08:38:21.541Z,0.93
2023-02-14T08:40:48.212Z,0.97
2023-02-14T08:43:14.864Z,1.01
2023-02-14T08:45:41.498Z,1.07
2023-02-14T08:48:09.001Z,1.13
2023-02-14T08:50:36.071Z,1.17
2023-02-14T08:53:05.930Z,1.21
2023-02-14T08:55:32.540Z,1.24
2023-02-14T08:58:00.616Z,1.27
2023-02-14T09:00:27.501Z,1.28
2023-02-14T09:02:54.128Z,1.33
2023-02-14T09:05:21.446Z,1.37
2023-02-14T09:07:47.991Z,1.41
2023-02-14T09:10:14.595Z,1.44
2023-02-14T09:12:41.866Z,1.45
2023-02-14T09:15:09.533Z,1.49
2023-02-14T09:17:36.560Z,1.52
2023-02-14T09:20:04.014Z,1.55
2023-02-14T09:22:30.568Z,1.58
2023-02-14T09:24:57.359Z,1.62
2023-02-14T09:27:23.981Z,1.63
2023-02-14T09:29:50.705Z,1.67
2023-02-14T09:32:17.547Z,1.70
2023-02-14T09:34:44.402Z,1.74
2023-02-14T09:37:30.114Z,1.78
2023-02-14T09:39:56.802Z,1.81
2023-02-14T09:42:40.849Z,1.85
2023-02-14T09:45:14.667Z,1.89
2023-02-14T09:47:57.800Z,1.93
2023-02-14T09:50:28.314Z,1.96
2023-02-14T09:52:58.357Z,1.99
2023-02-14T09:55:26.845Z,2.04
2023-02-14T09:58:07.453Z,2.08
2023-02-14T10:00:37.555Z,2.12
2023-02-14T10:03:10.697Z,2.17
2023-02-14T10:05:45.863Z,2.22
2023-02-14T10:08:28.710Z,2.25
2023-02-14T10:11:11.378Z,2.29
2023-02-14T10:13:43.099Z,2.31
2023-02-14T10:16:12.000Z,2.35
2023-02-14T10:18:41.229Z,2.41
2023-02-14T10:21:08.205Z,2.44
2023-02-14T10:23:37.786Z,2.49
2023-02-14T10:26:05.984Z,2.54
2023-02-14T10:28:36.200Z,2.57
2023-02-14T10:31:15.267Z,2.66
2023-02-14T10:33:43.850Z,2.79
2023-02-14T10:36:23.701Z,2.86
2023-02-14T10:39:01.770Z,2.94
2023-02-14T10:41:33.998Z,3.03
2023-02-14T10:44:38.971Z,3.12
2023-02-14T10:47:19.610Z,3.17
2023-02-14T10:50:03.346Z,3.30
2023-02-14T10:52:34.422Z,3.38
2023-02-14T10:55:12.445Z,3.50
2023-02-14T10:57:47.013Z,3.55
2023-02-14T11:00:22.813Z,3.64
2023-02-14T11:02:52.505Z,3.73
2023-02-14T11:05:27.849Z,3.79
2023-02-14T11:07:56.444Z,3.86
2023-02-14T11:10:27.180Z,3.97
2023-02-14T11:12:53.836Z,4.13
2023-02-14T11:15:25.477Z,4.18
2023-02-14T11:18:19.291Z,4.22
2023-02-14T11:20:59.949Z,4.36
2023-02-14T11:23:26.683Z,4.47
2023-02-14T11:25:55.664Z,4.55
2023-02-14T11:28:22.883Z,4.65
2023-02-14T11:30:50.754Z,4.77
2023-02-14T11:33:30.997Z,4.87
2023-02-14T11:35:58.151Z,4.99
2023-02-14T11:38:30.658Z,5.07
2023-02-14T11:40:59.091Z,5.16
2023-02-14T11:43:37.359Z,5.20
2023-02-14T11:46:26.390Z,5.31
2023-02-14T11:49:05.031Z,5.39
2023-02-14T11:51:42.682Z,5.49
2023-02-14T11:54:14.377Z,5.56
2023-02-14T11:56:57.163Z,5.64
2023-02-14T11:59:45.119Z,5.75
2023-02-14T12:02:24.423Z,5.86
2023-02-14T12:05:17.577Z,5.99
2023-02-14T12:07:45.872Z,6.15
2023-02-14T12:10:15.759Z,6.27
2023-02-14T12:13:10.005Z,6.34
2023-02-14T12:15:42.737Z,6.38
2023-02-14T12:18:21.379Z,6.46
2023-02-14T12:20:48.136Z,6.60
2023-02-14T12:23:52.509Z,6.65
2023-02-14T12:26:49.364Z,6.69
2023-02-14T12:29:40.286Z,6.75
2023-02-14T12:32:28.070Z,6.83
2023-02-14T12:35:14.851Z,6.94
2023-02-14T12:38:04.647Z,7.02
2023-02-14T12:40:40.459Z,7.11
2023-02-14T12:43:20.260Z,7.18
2023-02-14T12:46:35.308Z,7.28
2023-02-14T12:49:20.297Z,7.37
2023-02-14T12:52:18.284Z,7.46
2023-02-14T12:55:02.941Z,7.48
2023-02-14T12:57:57.779Z,7.49
2023-02-14T13:00:31.721Z,7.54
2023-02-14T13:03:20.031Z,7.58
2023-02-14T13:06:05.028Z,7.67
2023-02-14T13:09:08.795Z,7.73
2023-02-14T13:12:13.029Z,7.78
2023-02-14T13:14:51.748Z,7.78
2023-02-14T13:17:36.415Z,7.84
2023-02-14T13:20:34.317Z,7.88
2023-02-14T13:23:06.411Z,7.94
2023-02-14T13:25:37.251Z,7.94
2023-02-14T13:28:06.684Z,8.02
2023-02-14T13:30:38.607Z,8.12
2023-02-14T13:33:20.825Z,8.11
2023-02-14T13:35:47.882Z,8.13
2023-02-14T13:38:16.309Z,8.11
2023-02-14T13:40:43.286Z,8.14
2023-02-14T13:43:10.010Z,8.22
2023-02-14T13:45:37.764Z,8.19
2023-02-14T13:48:18.467Z,8.17
2023-02-14T13:50:58.508Z,8.35
2023-02-14T13:53:46.467Z,8.34
2023-02-14T13:56:15.936Z,8.37
2023-02-14T13:58:59.941Z,8.34
2023-02-14T14:01:48.238Z,8.38
2023-02-14T14:04:31.933Z,8.43
2023-02-14T14:07:04.837Z,8.36
2023-02-14T14:09:40.615Z,8.38
2023-02-14T14:12:26.159Z,8.36
2023-02-14T14:15:05.135Z,8.40
2023-02-14T14:17:33.387Z,8.38
2023-02-14T14:20:01.227Z,8.43
2023-02-14T14:22:28.621Z,8.46
2023-02-14T14:25:05.310Z,8.46
2023-02-14T14:27:40.916Z,8.52
2023-02-14T14:30:19.848Z,8.55
2023-02-14T14:32:46.712Z,8.55
2023-02-14T14:35:13.361Z,8.53
2023-02-14T14:37:54.650Z,8.52
2023-02-14T14:40:29.632Z,8.52
2023-02-14T14:43:06.495Z,8.48
2023-02-14T14:45:33.266Z,8.47
2023-02-14T14:48:04.503Z,8.45
2023-02-14T14:50:33.307Z,8.44
2023-02-14T14:53:09.483Z,8.44
2023-02-14T14:55:37.587Z,8.42
2023-02-14T14:58:06.756Z,8.34
2023-02-14T15:00:37.884Z,8.23
2023-02-14T15:03:06.379Z,8.11
2023-02-14T15:05:41.977Z,8.03
2023-02-14T15:08:32.938Z,7.94
2023-02-14T15:11:02.456Z,7.82
2023-02-14T15:13:50.235Z,7.74
2023-02-14T15:16:40.966Z,7.69
2023-02-14T15:19:09.065Z,7.63
2023-02-14T15:21:35.867Z,7.53
2023-02-14T15:24:03.209Z,7.49
2023-02-14T15:26:32.232Z,7.40
2023-02-14T15:29:07.556Z,7.34
2023-02-14T15:31:40.663Z,7.27
2023-02-14T15:34:08.214Z,7.22
2023-02-14T15:36:35.336Z,7.21
2023-02-14T15:39:06.260Z,7.18
2023-02-14T15:41:33.056Z,7.14
2023-02-14T15:43:59.746Z,7.11
2023-02-14T15:46:32.053Z,7.06
2023-02-14T15:49:01.292Z,7.02
2023-02-14T15:51:32.787Z,6.98
2023-02-14T15:54:01.615Z,6.96
2023-02-14T15:56:30.328Z,6.98
2023-02-14T15:59:00.222Z,6.96
2023-02-14T16:01:27.473Z,6.91
2023-02-14T16:04:00.036Z,6.90
2023-02-14T16:06:36.279Z,6.87
2023-02-14T16:09:05.758Z,6.85
2023-02-14T16:11:37.315Z,6.82
2023-02-14T16:14:31.354Z,6.79
2023-02-14T16:16:59.288Z,6.75
2023-02-14T16:19:38.342Z,6.68
2023-02-14T16:22:07.099Z,6.64
2023-02-14T16:24:34.567Z,6.61
2023-02-14T16:27:06.842Z,6.55
2023-02-14T16:29:36.773Z,6.49
2023-02-14T16:32:19.000Z,6.46
2023-02-14T16:34:49.204Z,6.43
2023-02-14T16:37:19.743Z,6.40
2023-02-14T16:39:46.901Z,6.36
2023-02-14T16:42:17.046Z,6.36
2023-02-14T16:44:44.794Z,6.33
2023-02-14T16:47:15.393Z,6.28
2023-02-14T16:49:42.117Z,6.23
2023-02-14T16:52:17.989Z,6.23
2023-02-14T16:54:44.852Z,6.24
2023-02-14T16:57:20.345Z,6.24
2023-02-14T16:59:47.392Z,6.20
2023-02-14T17:02:14.301Z,6.13
2023-02-14T17:04:41.205Z,6.08
2023-02-14T17:07:08.015Z,6.01
2023-02-14T17:09:40.311Z,5.94
2023-02-14T17:12:16.433Z,5.95
2023-02-14T17:14:46.642Z,5.92
2023-02-14T17:17:14.377Z,5.86
2023-02-14T17:19:41.132Z,5.83
2023-02-14T17:22:08.074Z,5.77
2023-02-14T17:24:34.869Z,5.75
2023-02-14T17:27:01.632Z,5.74
2023-02-14T17:29:28.363Z,5.71
2023-02-14T17:31:55.027Z,5.69
2023-02-14T17:34:21.896Z,5.65
2023-02-14T17:36:48.638Z,5.64
2023-02-14T17:39:18.249Z,5.63
2023-02-14T17:41:44.932Z,5.62
2023-02-14T17:44:13.141Z,5.54
2023-02-14T17:46:40.026Z,5.46
2023-02-14T17:49:08.715Z,5.45
2023-02-14T17:51:35.861Z,5.44
2023-02-14T17:54:02.513Z,5.42
2023-02-14T17:56:29.251Z,5.44
2023-02-14T17:58:56.265Z,5.46
2023-02-14T18:01:25.674Z,5.44
2023-02-14T18:03:54.093Z,5.39
2023-02-14T18:06:21.567Z,5.35
2023-02-14T18:08:49.927Z,5.30
2023-02-14T18:11:17.893Z,5.20
2023-02-14T18:13:44.744Z,5.17
2023-02-14T18:16:14.181Z,5.16
2023-02-14T18:18:41.277Z,5.20
2023-02-14T18:21:10.234Z,5.21
2023-02-14T18:23:37.442Z,5.18
2023-02-14T18:26:06.975Z,5.17
2023-02-14T18:28:34.896Z,5.15
2023-02-14T18:31:09.179Z,5.08
2023-02-14T18:33:36.844Z,5.06
2023-02-14T18:36:05.663Z,5.07
2023-02-14T18:38:32.440Z,5.03
2023-02-14T18:41:03.583Z,4.97
2023-02-14T18:43:30.739Z,4.96
2023-02-14T18:46:05.867Z,4.93
2023-02-14T18:48:33.512Z,4.93
2023-02-14T18:51:12.363Z,4.90
2023-02-14T18:53:39.911Z,4.83
2023-02-14T18:56:08.598Z,4.81
2023-02-14T18:58:35.932Z,4.78
2023-02-14T19:01:13.545Z,4.71
2023-02-14T19:03:40.634Z,4.68
2023-02-14T19:06:08.359Z,4.67
2023-02-14T19:08:37.402Z,4.66
2023-02-14T19:11:08.157Z,4.65
2023-02-14T19:13:35.021Z,4.63
2023-02-14T19:16:09.955Z,4.59
2023-02-14T19:18:36.885Z,4.55
2023-02-14T19:21:11.616Z,4.54
2023-02-14T19:23:38.618Z,4.50
2023-02-14T19:26:20.480Z,4.47
2023-02-14T19:28:49.378Z,4.46
2023-02-14T19:31:16.761Z,4.43
2023-02-14T19:33:45.037Z,4.42
2023-02-14T19:36:13.505Z,4.42
2023-02-14T19:38:41.692Z,4.39
2023-02-14T19:41:22.644Z,4.32
2023-02-14T19:43:51.335Z,4.27
2023-02-14T19:46:19.859Z,4.25
2023-02-14T19:48:47.326Z,4.23
2023-02-14T19:51:20.001Z,4.22
2023-02-14T19:53:46.791Z,4.23
2023-02-14T19:56:13.666Z,4.25
2023-02-14T19:58:41.704Z,4.23
2023-02-14T20:01:25.566Z,4.20
2023-02-14T20:03:53.253Z,4.15
2023-02-14T20:06:23.601Z,4.12
2023-02-14T20:08:50.398Z,4.09
2023-02-14T20:11:20.057Z,4.09
2023-02-14T20:13:46.801Z,4.06
2023-02-14T20:16:13.564Z,4.04
2023-02-14T20:18:40.338Z,4.02
2023-02-14T20:21:07.545Z,3.99
2023-02-14T20:23:34.362Z,3.97
2023-02-14T20:26:01.086Z,3.97
2023-02-14T20:28:27.872Z,3.96
2023-02-14T20:30:54.755Z,3.97
2023-02-14T20:33:21.566Z,3.94
2023-02-14T20:35:48.225Z,3.91
2023-02-14T20:38:15.105Z,3.86
2023-02-14T20:40:44.642Z,3.84
2023-02-14T20:43:11.429Z,3.81
2023-02-14T20:45:38.220Z,3.74
2023-02-14T20:48:06.934Z,3.64
2023-02-14T20:50:33.778Z,3.60
2023-02-14T20:53:00.616Z,3.57
2023-02-14T20:55:28.441Z,3.55
2023-02-14T20:57:57.107Z,3.55
2023-02-14T21:00:25.704Z,3.55
2023-02-14T21:02:52.898Z,3.56
2023-02-14T21:05:20.910Z,3.53
2023-02-14T21:07:47.839Z,3.48
2023-02-14T21:10:15.234Z,3.45
2023-02-14T21:12:42.044Z,3.41
2023-02-14T21:15:10.306Z,3.36
2023-02-14T21:17:37.832Z,3.32
2023-02-14T21:20:05.854Z,3.30
2023-02-14T21:22:33.003Z,3.30
2023-02-14T21:24:59.754Z,3.29
2023-02-14T21:27:26.813Z,3.27
2023-02-14T21:29:53.656Z,3.25
2023-02-14T21:32:20.435Z,3.20
2023-02-14T21:34:47.993Z,3.17
2023-02-14T21:37:14.839Z,3.16
2023-02-14T21:39:41.726Z,3.12
2023-02-14T21:42:11.417Z,3.08
2023-02-14T21:44:56.821Z,3.06
2023-02-14T21:47:23.957Z,3.06
2023-02-14T21:50:09.327Z,3.01
2023-02-14T21:52:36.690Z,2.94
2023-02-14T21:55:03.551Z,2.90
2023-02-14T21:57:31.236Z,2.88
2023-02-14T21:59:57.875Z,2.89
2023-02-14T22:02:24.706Z,2.88
2023-02-14T22:04:51.786Z,2.83
2023-02-14T22:07:18.592Z,2.81
2023-02-14T22:09:45.225Z,2.78
2023-02-14T22:12:11.983Z,2.74
2023-02-14T22:14:38.684Z,2.72
2023-02-14T22:17:05.468Z,2.71
2023-02-14T22:19:32.236Z,2.69
2023-02-14T22:21:58.952Z,2.69
2023-02-14T22:24:25.608Z,2.71
2023-02-14T22:26:52.356Z,2.71
2023-02-14T22:29:19.027Z,2.71
2023-02-14T22:31:46.345Z,2.70
2023-02-14T22:34:14.666Z,2.68
2023-02-14T22:36:41.800Z,2.65
2023-02-14T22:39:09.414Z,2.58
2023-02-14T22:41:37.956Z,2.52
2023-02-14T22:44:05.907Z,2.48
2023-02-14T22:46:32.849Z,2.45
2023-02-14T22:48:59.656Z,2.43
2023-02-14T22:51:34.524Z,2.44
2023-02-14T22:54:04.013Z,2.46
2023-02-14T22:56:34.225Z,2.44
2023-02-14T22:59:06.740Z,2.43
2023-02-14T23:01:34.828Z,2.42
2023-02-14T23:04:02.744Z,2.44
2023-02-14T23:06:31.769Z,2.42
2023-02-14T23:08:59.914Z,2.37
2023-02-14T23:11:29.176Z,2.36
2023-02-14T23:14:15.167Z,2.35
2023-02-14T23:17:00.939Z,2.29
2023-02-14T23:19:48.734Z,2.27
2023-02-14T23:22:22.643Z,2.25
2023-02-14T23:24:51.429Z,2.20
2023-02-14T23:27:20.831Z,2.15
2023-02-14T23:29:48.016Z,2.10
2023-02-14T23:32:15.393Z,2.08
2023-02-14T23:34:43.497Z,2.03
2023-02-14T23:37:10.971Z,1.98
2023-02-14T23:39:37.856Z,1.95
2023-02-14T23:42:05.911Z,1.93
2023-02-14T23:44:33.403Z,1.91
2023-02-14T23:47:03.017Z,1.90
2023-02-14T23:49:31.125Z,1.88
2023-02-14T23:51:58.090Z,1.83
2023-02-14T23:54:25.132Z,1.80
2023-02-14T23:56:52.575Z,1.82
2023-02-14T23:59:20.657Z,1.80
